createdAt,value
2023-04-12T00:09:30.335Z,7.24
2023-04-12T00:19:52.319Z,7.28
2023-04-12T00:30:13.753Z,7.39
2023-04-12T00:40:35.230Z,7.49
2023-04-12T00:50:57.551Z,7.56
2023-04-12T01:01:19.527Z,7.64
2023-04-12T01:11:59.800Z,7.67
2023-04-12T01:22:42.637Z,7.76
2023-04-12T01:33:06.618Z,7.76
2023-04-12T01:43:28.025Z,7.80
2023-04-12T01:53:55.051Z,7.79
2023-04-12T02:04:17.306Z,7.80
2023-04-12T02:14:38.742Z,7.81
2023-04-12T02:25:00.862Z,7.84
2023-04-12T02:35:22.781Z,7.91
2023-04-12T02:45:44.271Z,7.86
2023-04-12T02:56:06.721Z,7.86
2023-04-12T03:06:30.087Z,7.85
2023-04-12T03:16:53.496Z,7.88
2023-04-12T03:27:14.941Z,7.85
2023-04-12T03:37:36.472Z,7.88
2023-04-12T03:47:58.006Z,7.83
2023-04-12T03:58:22.696Z,7.78
2023-04-12T04:08:45.001Z,7.74
2023-04-12T04:19:06.498Z,7.69
2023-04-12T04:29:29.142Z,7.76
2023-04-12T04:39:50.723Z,7.80
2023-04-12T04:50:12.158Z,7.82
2023-04-12T05:00:35.700Z,7.90
2023-04-12T05:10:57.377Z,8.01
2023-04-12T05:21:18.748Z,8.20
2023-04-12T05:31:40.102Z,8.39
2023-04-12T05:42:01.940Z,8.53
2023-04-12T05:52:23.337Z,8.63
2023-04-12T06:02:45.546Z,8.76
2023-04-12T06:13:07.023Z,8.86
2023-04-12T06:23:28.445Z,9.01
2023-04-12T06:33:50.383Z,9.13
2023-04-12T06:44:11.752Z,9.32
2023-04-12T06:54:33.361Z,9.47
2023-04-12T07:04:54.854Z,9.63
2023-04-12T07:15:16.362Z,9.77
2023-04-12T07:25:38.701Z,9.84
2023-04-12T07:36:00.973Z,10.06
2023-04-12T07:46:22.862Z,10.14
2023-04-12T07:56:57.612Z,10.20
2023-04-12T08:07:19.197Z,10.23
2023-04-12T08:17:43.736Z,10.16
2023-04-12T08:28:08.043Z,10.04
2023-04-12T08:38:44.183Z,9.94
2023-04-12T08:49:07.268Z,9.77
2023-04-12T08:59:29.675Z,9.75
2023-04-12T09:09:51.164Z,9.77
2023-04-12T09:20:12.551Z,9.76
2023-04-12T09:30:41.319Z,9.77
2023-04-12T09:41:18.126Z,9.78
2023-04-12T09:51:41.121Z,9.89
2023-04-12T10:02:04.534Z,9.96
2023-04-12T10:12:27.395Z,9.98
2023-04-12T10:22:49.936Z,9.99
2023-04-12T10:33:16.874Z,9.93
2023-04-12T10:43:38.564Z,10.01
2023-04-12T10:54:09.637Z,10.05
2023-04-12T11:04:31.416Z,10.09
2023-04-12T11:14:52.873Z,10.17
2023-04-12T11:25:16.673Z,10.31
2023-04-12T11:35:38.063Z,10.44
2023-04-12T11:45:59.905Z,10.62
2023-04-12T11:56:21.820Z,10.77
2023-04-12T12:06:44.067Z,10.88
2023-04-12T12:17:13.489Z,10.96
2023-04-12T12:27:37.565Z,10.99
2023-04-12T12:38:00.203Z,10.83
2023-04-12T12:48:21.659Z,10.83
2023-04-12T12:58:43.167Z,11.01
2023-04-12T13:09:04.592Z,11.26
2023-04-12T13:19:26.041Z,11.39
2023-04-12T13:29:47.373Z,11.53
2023-04-12T13:40:08.944Z,11.72
2023-04-12T13:50:30.308Z,11.67
2023-04-12T14:00:54.241Z,11.65
2023-04-12T14:11:15.938Z,11.69
2023-04-12T14:21:37.693Z,11.78
2023-04-12T14:31:59.095Z,11.91
2023-04-12T14:42:20.864Z,12.22
2023-04-12T14:52:42.224Z,12.39
2023-04-12T15:03:05.367Z,12.42
2023-04-12T15:13:32.268Z,12.44
2023-04-12T15:23:55.060Z,12.39
2023-04-12T15:34:16.560Z,12.89
2023-04-12T15:44:37.997Z,13.56
2023-04-12T15:54:59.754Z,13.10
2023-04-12T16:05:21.262Z,12.76
2023-04-12T16:15:42.704Z,12.50
2023-04-12T16:26:05.153Z,12.21
2023-04-12T16:36:27.199Z,11.23
2023-04-12T16:46:48.891Z,10.53
2023-04-12T16:57:11.745Z,9.97
2023-04-12T17:07:33.125Z,9.59
2023-04-12T17:17:59.954Z,9.27
2023-04-12T17:28:21.359Z,9.08
2023-04-12T17:38:42.733Z,9.11
2023-04-12T17:49:05.828Z,9.13
2023-04-12T17:59:28.056Z,9.20
2023-04-12T18:09:50.586Z,9.24
2023-04-12T18:20:12.010Z,9.23
2023-04-12T18:30:33.465Z,9.18
2023-04-12T18:40:55.130Z,9.17
2023-04-12T18:51:16.865Z,9.06
2023-04-12T19:01:38.465Z,8.92
2023-04-12T19:11:59.995Z,8.85
2023-04-12T19:22:21.647Z,8.80
2023-04-12T19:32:43.112Z,8.72
2023-04-12T19:43:04.597Z,8.67
2023-04-12T19:53:26.068Z,8.59
2023-04-12T20:03:47.492Z,8.53
2023-04-12T20:14:08.991Z,8.39
2023-04-12T20:24:30.444Z,8.27
2023-04-12T20:34:51.958Z,8.20
2023-04-12T20:45:14.331Z,8.17
2023-04-12T20:55:35.711Z,8.09
2023-04-12T21:05:57.109Z,7.93
2023-04-12T21:16:19.735Z,7.80
2023-04-12T21:26:42.310Z,7.83
2023-04-12T21:37:04.284Z,7.79
2023-04-12T21:47:25.951Z,7.67
2023-04-12T21:57:47.548Z,7.59
2023-04-12T22:08:08.888Z,7.53
2023-04-12T22:18:31.685Z,7.41
2023-04-12T22:28:54.254Z,7.35
2023-04-12T22:39:15.765Z,7.30
2023-04-12T22:49:44.428Z,7.14
2023-04-12T23:00:06.464Z,7.09
2023-04-12T23:10:28.084Z,7.04
2023-04-12T23:20:51.231Z,7.00
2023-04-12T23:31:12.589Z,6.92
2023-04-12T23:41:34.075Z,6.87
2023-04-12T23:51:55.484Z,6.79
